Time;durP1;ratioP1;P1;durP2;ratioP2;P2;SDS_P1;SDS_P2;PMS_P1;PMS_P2;Temp;Humidity;BMP_temperature;BMP_pressure;BME280_temperature;BME280_humidity;BME280_pressure;Samples;Min_cycle;Max_cycle;Signal;HPM_P1;HPM_P2
2023/04/20 00:01:10;;;;;;;5.03;2.60;;;8.70;99.90;;;;;;5047567;28;20484;-80
2023/04/20 00:03:37;;;;;;;3.60;2.27;;;8.70;99.90;;;;;;5048903;28;20450;-78
2023/04/20 00:06:04;;;;;;;4.50;2.70;;;8.70;99.90;;;;;;5060489;28;20453;-79
2023/04/20 00:08:31;;;;;;;4.60;2.63;;;8.70;99.90;;;;;;5054952;28;20485;-80
2023/04/20 00:10:59;;;;;;;7.53;3.60;;;8.50;99.90;;;;;;5039166;28;20454;-79
2023/04/20 00:13:26;;;;;;;8.13;2.17;;;8.40;99.90;;;;;;5060890;28;20466;-78
2023/04/20 00:15:53;;;;;;;6.90;2.70;;;8.40;99.90;;;;;;5043705;28;20535;-79
2023/04/20 00:18:20;;;;;;;8.93;3.10;;;8.40;99.90;;;;;;5058229;28;20472;-79
2023/04/20 00:20:46;;;;;;;3.30;2.23;;;8.30;99.90;;;;;;5059226;28;20508;-80
2023/04/20 00:23:13;;;;;;;4.77;2.40;;;8.30;99.90;;;;;;5042930;28;20460;-81
2023/04/20 00:25:40;;;;;;;3.50;2.60;;;8.20;99.90;;;;;;5041626;28;20452;-80
2023/04/20 00:28:08;;;;;;;5.53;2.67;;;8.20;99.90;;;;;;5059557;28;20453;-79
2023/04/20 00:30:35;;;;;;;5.10;2.80;;;8.20;99.90;;;;;;5038122;28;20546;-79
2023/04/20 00:33:02;;;;;;;5.20;2.40;;;8.10;99.90;;;;;;5038435;28;20468;-80
2023/04/20 00:35:29;;;;;;;4.30;2.40;;;8.10;99.90;;;;;;5040492;28;20455;-78
2023/04/20 00:37:56;;;;;;;8.13;2.70;;;8.10;99.90;;;;;;5059886;28;20490;-79
2023/04/20 00:40:23;;;;;;;4.53;2.67;;;8.10;99.90;;;;;;5060379;28;20478;-81
2023/04/20 00:42:50;;;;;;;5.93;2.63;;;8.10;99.90;;;;;;5039623;28;20460;-80
2023/04/20 00:45:18;;;;;;;5.00;3.50;;;8.10;99.90;;;;;;5040791;28;20952;-79
2023/04/20 00:47:45;;;;;;;4.70;3.00;;;8.00;99.90;;;;;;5056032;28;20522;-80
2023/04/20 00:50:11;;;;;;;6.57;2.80;;;7.80;99.90;;;;;;5059639;28;20471;-79
2023/04/20 00:52:39;;;;;;;5.23;3.00;;;7.80;99.90;;;;;;5045089;28;20466;-79
2023/04/20 00:55:06;;;;;;;3.90;2.77;;;7.70;99.90;;;;;;5041012;28;20456;-78
2023/04/20 00:57:33;;;;;;;4.60;2.10;;;7.70;99.90;;;;;;5043293;28;20460;-80
2023/04/20 01:00:00;;;;;;;5.20;2.20;;;7.60;99.90;;;;;;5040868;28;20469;-79
2023/04/20 01:02:28;;;;;;;3.37;2.13;;;7.60;99.90;;;;;;5050325;28;20460;-79
2023/04/20 01:04:56;;;;;;;3.87;2.00;;;7.50;99.90;;;;;;5060251;28;20539;-79
2023/04/20 01:07:23;;;;;;;4.90;2.40;;;7.50;99.90;;;;;;5053771;28;20470;-80
2023/04/20 01:09:49;;;;;;;4.50;2.60;;;7.40;99.90;;;;;;5060317;28;20536;-79
2023/04/20 01:12:16;;;;;;;3.37;2.10;;;7.30;99.90;;;;;;5053153;28;20811;-78
2023/04/20 01:14:43;;;;;;;5.20;2.67;;;7.30;99.90;;;;;;5060578;28;20468;-78
2023/04/20 01:17:10;;;;;;;4.53;2.17;;;7.30;99.90;;;;;;5054260;28;20472;-80
2023/04/20 01:19:38;;;;;;;6.50;2.60;;;7.30;99.90;;;;;;5039536;28;20560;-79
2023/04/20 01:22:06;;;;;;;6.17;2.50;;;7.30;99.90;;;;;;5043598;28;20554;-77
2023/04/20 01:24:34;;;;;;;3.37;2.23;;;7.30;99.90;;;;;;5028908;28;20461;-80
2023/04/20 01:27:01;;;;;;;5.83;3.17;;;7.30;99.90;;;;;;5027978;28;20547;-80
2023/04/20 01:29:28;;;;;;;5.30;2.30;;;7.30;99.90;;;;;;5061718;28;20472;-80
2023/04/20 01:31:55;;;;;;;6.43;3.20;;;7.40;99.90;;;;;;5059249;28;20456;-80
2023/04/20 01:34:22;;;;;;;3.60;2.37;;;7.50;99.90;;;;;;5040922;28;20884;-79
2023/04/20 01:36:49;;;;;;;3.67;2.53;;;7.60;99.90;;;;;;5040753;28;20877;-80
2023/04/20 01:39:17;;;;;;;4.50;2.33;;;7.70;99.90;;;;;;5059722;28;21282;-79
2023/04/20 01:41:45;;;;;;;4.37;2.30;;;7.80;99.90;;;;;;5059141;28;20488;-80
2023/04/20 01:44:12;;;;;;;4.93;2.10;;;7.90;99.90;;;;;;5039618;28;20902;-79
2023/04/20 01:46:40;;;;;;;4.23;2.47;;;7.90;99.90;;;;;;5039451;28;20453;-79
2023/04/20 01:49:07;;;;;;;8.20;2.80;;;8.00;99.90;;;;;;5056100;28;20475;-79
2023/04/20 01:51:34;;;;;;;3.37;2.37;;;7.90;99.90;;;;;;5052327;28;20445;-79
2023/04/20 01:54:02;;;;;;;4.03;2.20;;;7.90;99.90;;;;;;5039866;28;20464;-79
2023/04/20 01:56:29;;;;;;;4.50;2.40;;;7.90;99.90;;;;;;5037621;28;20466;-81
2023/04/20 01:58:58;;;;;;;3.70;2.03;;;8.00;99.90;;;;;;5053573;28;20532;-81
2023/04/20 02:01:24;;;;;;;4.10;2.40;;;8.00;99.90;;;;;;5058557;28;20481;-78
2023/04/20 02:03:51;;;;;;;4.53;2.57;;;8.10;99.90;;;;;;5059278;28;20562;-80
2023/04/20 02:06:18;;;;;;;5.83;2.70;;;8.20;99.90;;;;;;5046976;28;20528;-80
2023/04/20 02:08:45;;;;;;;3.30;1.90;;;8.10;99.90;;;;;;5041052;28;20517;-81
2023/04/20 02:11:11;;;;;;;9.73;2.33;;;8.20;99.90;;;;;;5042879;28;20457;-79
2023/04/20 02:13:38;;;;;;;3.77;2.20;;;8.20;99.90;;;;;;5059515;28;20954;-78
2023/04/20 02:16:07;;;;;;;8.00;2.70;;;8.20;99.90;;;;;;5056034;28;20460;-79
2023/04/20 02:18:34;;;;;;;5.17;2.47;;;8.20;99.90;;;;;;5039593;28;21028;-80
2023/04/20 02:21:01;;;;;;;4.57;2.40;;;8.30;99.90;;;;;;5024530;28;20520;-79
2023/04/20 02:23:29;;;;;;;4.03;2.93;;;8.30;99.90;;;;;;5019583;28;20877;-80
2023/04/20 02:25:55;;;;;;;3.80;2.40;;;8.30;99.90;;;;;;5019886;28;20545;-79
2023/04/20 02:28:22;;;;;;;9.13;2.80;;;8.30;99.90;;;;;;5020440;28;20480;-79
2023/04/20 02:30:49;;;;;;;3.57;2.47;;;8.30;99.90;;;;;;5037682;28;20883;-78
2023/04/20 02:33:19;;;;;;;4.77;2.37;;;8.20;99.90;;;;;;5038545;28;20536;-78
2023/04/20 02:35:46;;;;;;;4.73;3.00;;;8.10;99.90;;;;;;5030275;28;20443;-80
2023/04/20 02:38:13;;;;;;;5.93;2.80;;;8.10;99.90;;;;;;5016928;28;20503;-80
2023/04/20 02:40:40;;;;;;;4.63;2.63;;;8.10;99.90;;;;;;5032298;28;20481;-78
2023/04/20 02:43:07;;;;;;;6.90;2.87;;;8.00;99.90;;;;;;5037631;28;20472;-80
2023/04/20 02:45:34;;;;;;;7.80;3.27;;;7.90;99.90;;;;;;5049917;28;20458;-79
2023/04/20 02:48:01;;;;;;;8.30;3.07;;;7.90;99.90;;;;;;5056469;28;20487;-80
2023/04/20 02:50:29;;;;;;;4.73;2.70;;;7.90;99.90;;;;;;5041766;28;20479;-81
2023/04/20 02:52:56;;;;;;;4.17;2.63;;;8.00;99.90;;;;;;5034315;28;20512;-80
2023/04/20 02:55:23;;;;;;;7.13;2.70;;;8.00;99.90;;;;;;5046946;28;20494;-79
2023/04/20 02:57:49;;;;;;;7.00;3.00;;;8.00;99.90;;;;;;5056424;28;20522;-80
2023/04/20 03:00:17;;;;;;;4.63;2.33;;;8.00;99.90;;;;;;5047776;28;20457;-80
2023/04/20 03:02:44;;;;;;;4.77;2.90;;;8.10;99.90;;;;;;5046522;28;20587;-81
2023/04/20 03:05:11;;;;;;;6.23;2.67;;;8.20;99.90;;;;;;5049084;28;20861;-80
2023/04/20 03:07:39;;;;;;;5.77;2.90;;;8.20;99.90;;;;;;5036172;28;21004;-77
2023/04/20 03:10:07;;;;;;;4.27;2.83;;;8.30;99.90;;;;;;5034287;28;20481;-79
2023/04/20 03:12:34;;;;;;;4.13;2.77;;;8.30;99.90;;;;;;5031557;28;20556;-81
2023/04/20 03:15:01;;;;;;;6.83;3.33;;;8.30;99.90;;;;;;5041125;28;20464;-80
2023/04/20 03:17:28;;;;;;;5.40;3.00;;;8.20;99.90;;;;;;5055872;28;20474;-79
2023/04/20 03:19:55;;;;;;;5.67;3.40;;;8.20;99.90;;;;;;5052179;28;20477;-80
2023/04/20 03:22:22;;;;;;;9.90;3.30;;;8.20;99.90;;;;;;5035396;28;20907;-79
2023/04/20 03:24:51;;;;;;;9.53;4.67;;;8.30;99.90;;;;;;5033436;28;20495;-79
2023/04/20 03:27:17;;;;;;;4.63;3.40;;;8.10;99.90;;;;;;5034074;28;20476;-79
2023/04/20 03:29:44;;;;;;;4.93;3.47;;;8.10;99.90;;;;;;5037308;28;20547;-79
2023/04/20 03:32:11;;;;;;;4.87;3.60;;;8.10;99.90;;;;;;5036795;28;20934;-80
2023/04/20 03:34:38;;;;;;;10.07;4.57;;;8.10;1.00;;;;;;5040617;28;20453;-78
2023/04/20 03:37:05;;;;;;;6.23;3.80;;;8.10;1.00;;;;;;5056183;28;20457;-81
2023/04/20 03:39:32;;;;;;;5.27;3.10;;;8.00;1.00;;;;;;5049439;28;20499;-79
2023/04/20 03:42:00;;;;;;;8.53;4.00;;;8.00;1.00;;;;;;5051722;28;20480;-79
2023/04/20 03:44:27;;;;;;;7.23;3.53;;;8.00;1.00;;;;;;5058651;28;20456;-80
2023/04/20 03:46:54;;;;;;;7.20;4.30;;;8.00;20.60;;;;;;5044535;28;20516;-80
2023/04/20 03:49:24;;;;;;;8.33;4.53;;;7.90;99.90;;;;;;5039595;28;20486;-80
2023/04/20 03:51:51;;;;;;;7.00;4.20;;;7.90;99.90;;;;;;5052113;28;20451;-78
2023/04/20 03:54:18;;;;;;;6.67;3.40;;;7.90;99.90;;;;;;5058619;28;20460;-79
2023/04/20 03:56:45;;;;;;;5.63;4.00;;;7.90;99.90;;;;;;5036596;28;20457;-79
2023/04/20 03:59:13;;;;;;;4.50;3.07;;;7.90;99.90;;;;;;5019518;28;20481;-79
2023/04/20 04:01:41;;;;;;;7.10;4.50;;;7.90;99.90;;;;;;5039024;28;20991;-79
2023/04/20 04:04:08;;;;;;;4.90;3.67;;;7.90;99.90;;;;;;5058301;28;20452;-79
2023/04/20 04:06:34;;;;;;;5.87;3.60;;;7.90;99.90;;;;;;5047532;28;20834;-80
2023/04/20 04:09:01;;;;;;;5.70;3.50;;;7.80;99.90;;;;;;5036917;28;20511;-80
2023/04/20 04:11:28;;;;;;;7.07;3.40;;;7.80;99.90;;;;;;5053228;28;20454;-80
2023/04/20 04:13:55;;;;;;;5.33;3.57;;;7.80;99.90;;;;;;5027359;28;20551;-79
2023/04/20 04:16:23;;;;;;;6.60;3.43;;;7.80;99.90;;;;;;5046295;28;20828;-79
2023/04/20 04:18:50;;;;;;;4.70;3.67;;;7.70;99.90;;;;;;5051863;28;20476;-77
2023/04/20 04:21:17;;;;;;;8.00;4.00;;;7.80;1.00;;;;;;5037980;28;20548;-80
2023/04/20 04:23:44;;;;;;;5.73;3.60;;;7.80;99.90;;;;;;5036175;28;20547;-79
2023/04/20 04:26:11;;;;;;;6.00;3.60;;;7.90;99.90;;;;;;5036561;28;20497;-81
2023/04/20 04:28:39;;;;;;;6.60;3.70;;;7.90;99.90;;;;;;5040868;28;20932;-79
2023/04/20 04:31:06;;;;;;;5.77;3.03;;;7.90;1.00;;;;;;5027660;28;20466;-80
2023/04/20 04:33:34;;;;;;;7.83;3.50;;;8.00;99.90;;;;;;5020548;28;20485;-80
2023/04/20 04:36:01;;;;;;;8.03;3.47;;;8.00;99.90;;;;;;5054745;28;20456;-78
2023/04/20 04:38:33;;;;;;;6.60;3.77;;;8.10;99.90;;;;;;5056659;28;20487;-78
2023/04/20 04:41:00;;;;;;;5.47;3.30;;;8.10;99.90;;;;;;5017352;28;20454;-78
2023/04/20 04:43:28;;;;;;;5.80;3.80;;;8.20;99.90;;;;;;5018938;28;20554;-76
2023/04/20 04:45:57;;;;;;;9.10;3.50;;;8.10;99.90;;;;;;5054184;28;20459;-78
2023/04/20 04:48:24;;;;;;;5.50;3.17;;;8.10;99.90;;;;;;5037622;28;20473;-77
2023/04/20 04:50:52;;;;;;;9.40;3.23;;;8.10;99.90;;;;;;5054011;28;20452;-76
2023/04/20 04:53:18;;;;;;;5.80;3.33;;;8.20;99.90;;;;;;5059377;28;20466;-78
2023/04/20 04:55:45;;;;;;;5.60;3.20;;;8.20;99.90;;;;;;5042108;28;20528;-77
2023/04/20 04:58:12;;;;;;;7.80;3.77;;;8.10;99.90;;;;;;5039018;28;20557;-78
2023/04/20 05:00:39;;;;;;;5.77;3.70;;;8.20;99.90;;;;;;5047006;28;20554;-78
2023/04/20 05:03:05;;;;;;;6.53;3.00;;;8.20;99.90;;;;;;5041177;28;21002;-77
2023/04/20 05:05:32;;;;;;;5.60;3.33;;;8.30;99.90;;;;;;5039485;28;20488;-78
2023/04/20 05:08:00;;;;;;;5.67;3.80;;;8.10;99.90;;;;;;5053398;28;20551;-79
2023/04/20 05:10:27;;;;;;;4.80;3.30;;;8.10;99.90;;;;;;5041642;28;20464;-77
2023/04/20 05:12:54;;;;;;;4.40;3.30;;;8.10;99.90;;;;;;5033615;28;20443;-79
2023/04/20 05:15:21;;;;;;;6.10;3.60;;;8.10;99.90;;;;;;5044059;28;20461;-77
2023/04/20 05:17:49;;;;;;;4.80;3.30;;;8.10;99.90;;;;;;5054100;28;20454;-78
2023/04/20 05:20:16;;;;;;;4.47;3.70;;;8.10;99.90;;;;;;5044468;28;20516;-79
2023/04/20 05:22:43;;;;;;;6.00;3.60;;;8.10;99.90;;;;;;5033329;28;21012;-79
2023/04/20 05:25:11;;;;;;;6.97;4.30;;;8.10;99.90;;;;;;5048355;28;20987;-78
2023/04/20 05:27:38;;;;;;;5.90;3.80;;;8.20;99.90;;;;;;5051908;28;20457;-78
2023/04/20 05:30:06;;;;;;;4.80;3.73;;;10.60;99.90;;;;;;5041186;28;20449;-80
2023/04/20 05:32:33;;;;;;;6.50;3.63;;;8.20;99.90;;;;;;5038331;28;20461;-78
2023/04/20 05:35:00;;;;;;;5.43;3.50;;;8.20;99.90;;;;;;5054236;28;20456;-80
2023/04/20 05:37:27;;;;;;;6.50;4.00;;;8.20;99.90;;;;;;5040733;28;20833;-78
2023/04/20 05:39:53;;;;;;;6.10;3.83;;;8.20;99.90;;;;;;5052832;28;20483;-78
2023/04/20 05:42:22;;;;;;;6.20;4.13;;;8.10;99.90;;;;;;5049238;28;20824;-79
2023/04/20 05:44:48;;;;;;;7.30;4.00;;;8.00;99.90;;;;;;5033964;28;20982;-79
2023/04/20 05:47:15;;;;;;;7.10;3.97;;;8.10;1.00;;;;;;5035608;28;20437;-81
2023/04/20 05:49:44;;;;;;;6.73;4.00;;;8.00;1.00;;;;;;5056567;28;21117;-81
2023/04/20 05:52:11;;;;;;;7.23;3.60;;;8.10;1.00;;;;;;5041473;28;20540;-80
2023/04/20 05:54:38;;;;;;;7.87;4.30;;;8.00;99.90;;;;;;5034524;28;20459;-78
2023/04/20 05:57:05;;;;;;;7.20;4.50;;;7.90;99.90;;;;;;5047623;28;20460;-82
2023/04/20 05:59:33;;;;;;;19.00;5.10;;;7.90;1.00;;;;;;5056206;28;20475;-79
2023/04/20 06:02:00;;;;;;;9.57;5.23;;;7.80;99.90;;;;;;5054497;28;20861;-78
2023/04/20 06:04:27;;;;;;;6.83;4.80;;;7.60;99.90;;;;;;5042685;28;21017;-84
2023/04/20 06:06:54;;;;;;;11.63;5.23;;;7.50;99.90;;;;;;5009092;28;20535;-78
2023/04/20 06:09:25;;;;;;;8.47;5.00;;;7.40;99.90;;;;;;5031432;28;20476;-81
2023/04/20 06:11:52;;;;;;;8.90;5.40;;;7.30;1.00;;;;;;5035961;28;20552;-82
2023/04/20 06:14:21;;;;;;;10.37;5.80;;;7.30;1.00;;;;;;5032692;28;20452;-78
2023/04/20 06:16:50;;;;;;;7.73;5.47;;;7.30;1.00;;;;;;5038771;28;20458;-81
2023/04/20 06:19:16;;;;;;;6.57;4.50;;;7.30;1.00;;;;;;5035485;28;21009;-79
2023/04/20 06:21:43;;;;;;;6.67;5.10;;;7.20;1.00;;;;;;5033117;28;20462;-81
2023/04/20 06:24:10;;;;;;;9.03;5.30;;;7.20;1.00;;;;;;5036431;28;20964;-79
2023/04/20 06:26:37;;;;;;;8.17;5.60;;;7.10;1.00;;;;;;5031991;28;20456;-79
2023/04/20 06:29:04;;;;;;;7.73;5.97;;;7.20;1.00;;;;;;5033867;28;20564;-81
2023/04/20 06:31:32;;;;;;;8.53;6.90;;;7.10;1.00;;;;;;5036822;28;20828;-81
2023/04/20 06:34:01;;;;;;;7.83;6.90;;;7.10;1.00;;;;;;5034224;28;20449;-79
2023/04/20 06:36:27;;;;;;;8.10;6.57;;;7.00;1.00;;;;;;5028669;28;20468;-82
2023/04/20 06:38:55;;;;;;;10.73;6.20;;;7.10;1.00;;;;;;5031570;28;21074;-82
2023/04/20 06:41:21;;;;;;;8.83;7.30;;;7.10;1.00;;;;;;5035452;28;20536;-81
2023/04/20 06:43:48;;;;;;;10.33;6.90;;;7.00;1.00;;;;;;5034602;28;20835;-80
2023/04/20 06:46:15;;;;;;;9.97;7.13;;;7.10;1.00;;;;;;5034711;28;20457;-80
2023/04/20 06:48:42;;;;;;;11.83;7.50;;;7.00;1.00;;;;;;5033964;28;20718;-81
2023/04/20 06:51:12;;;;;;;8.53;5.90;;;6.90;1.00;;;;;;5041325;28;20460;-79
2023/04/20 06:53:39;;;;;;;7.00;5.23;;;6.80;17.70;;;;;;5034422;28;20441;-83
2023/04/20 06:56:07;;;;;;;9.13;6.50;;;6.90;46.70;;;;;;5038873;28;20453;-79
2023/04/20 06:58:33;;;;;;;8.40;5.27;;;7.10;20.10;;;;;;5040202;28;20471;-82
2023/04/20 07:01:00;;;;;;;10.27;6.90;;;7.30;10.50;;;;;;5035332;28;20908;-82
2023/04/20 07:03:27;;;;;;;8.80;5.63;;;7.60;14.80;;;;;;5037633;28;20481;-79
2023/04/20 07:05:54;;;;;;;6.00;5.40;;;7.80;1.00;;;;;;5038935;28;20481;-82
2023/04/20 07:08:22;;;;;;;7.40;5.90;;;7.90;1.00;;;;;;5038178;28;20478;-83
2023/04/20 07:10:49;;;;;;;7.97;4.70;;;8.20;1.00;;;;;;5035707;28;20999;-80
2023/04/20 07:13:16;;;;;;;6.97;5.83;;;8.30;1.00;;;;;;5038995;28;20453;-82
2023/04/20 07:15:44;;;;;;;7.13;5.70;;;8.10;99.90;;;;;;5043806;28;20458;-82
2023/04/20 07:18:11;;;;;;;8.13;5.50;;;8.20;1.00;;;;;;5035869;28;20534;-83
2023/04/20 07:20:38;;;;;;;7.63;6.07;;;8.30;1.00;;;;;;5038428;28;20460;-81
2023/04/20 07:23:05;;;;;;;9.20;5.50;;;8.10;99.90;;;;;;5040190;28;20484;-81
2023/04/20 07:25:33;;;;;;;7.07;5.60;;;8.10;99.90;;;;;;5042580;28;20464;-84
2023/04/20 07:28:00;;;;;;;8.70;5.20;;;8.30;99.90;;;;;;5038728;28;20480;-80
2023/04/20 07:30:31;;;;;;;7.03;5.13;;;8.40;99.90;;;;;;5040425;28;20576;-79
2023/04/20 07:32:57;;;;;;;7.47;5.80;;;8.30;99.90;;;;;;5036103;28;20488;-83
2023/04/20 07:35:24;;;;;;;7.07;6.20;;;8.20;95.40;;;;;;5045622;28;20965;-82
2023/04/20 07:37:51;;;;;;;8.53;6.53;;;8.30;99.90;;;;;;5039044;28;20457;-81
2023/04/20 07:40:18;;;;;;;8.70;6.27;;;8.20;99.90;;;;;;5038559;28;20459;-83
2023/04/20 07:42:46;;;;;;;6.90;5.03;;;8.30;99.90;;;;;;5037138;28;20517;-80
2023/04/20 07:45:13;;;;;;;8.10;5.23;;;8.20;99.90;;;;;;5039789;28;20459;-86
2023/04/20 07:47:42;;;;;;;8.47;5.07;;;8.40;99.90;;;;;;5038805;28;20802;-83
2023/04/20 07:50:10;;;;;;;8.30;5.87;;;8.40;42.80;;;;;;5043620;28;20467;-82
2023/04/20 07:52:36;;;;;;;10.57;5.60;;;8.30;1.00;;;;;;5045142;28;20449;-82
2023/04/20 07:55:04;;;;;;;8.93;6.37;;;8.30;1.00;;;;;;5042618;28;20495;-81
2023/04/20 07:57:30;;;;;;;8.40;5.93;;;8.20;1.00;;;;;;5035955;28;20524;-83
2023/04/20 07:59:59;;;;;;;6.13;5.47;;;8.30;1.00;;;;;;5040653;28;20573;-83
2023/04/20 08:02:26;;;;;;;8.60;5.70;;;8.30;71.20;;;;;;5036176;28;20479;-83
2023/04/20 08:04:52;;;;;;;6.73;5.83;;;8.30;99.90;;;;;;5030062;28;20508;-82
2023/04/20 08:07:19;;;;;;;8.43;5.60;;;8.30;1.00;;;;;;5033294;28;20459;-83
2023/04/20 08:09:46;;;;;;;7.60;5.10;;;8.40;99.90;;;;;;5038414;28;20569;-80
2023/04/20 08:12:13;;;;;;;8.30;6.57;;;8.50;1.00;;;;;;5041312;28;20460;-82
2023/04/20 08:14:40;;;;;;;8.30;5.57;;;8.40;18.90;;;;;;5035457;28;20545;-82
2023/04/20 08:17:08;;;;;;;8.47;6.80;;;8.30;1.00;;;;;;5039135;28;20928;-84
2023/04/20 08:19:35;;;;;;;10.30;5.70;;;8.40;1.00;;;;;;5038297;28;20519;-82
2023/04/20 08:22:02;;;;;;;8.30;6.73;;;8.40;99.90;;;;;;5054186;28;20515;-81
2023/04/20 08:24:28;;;;;;;8.17;6.00;;;8.60;99.90;;;;;;5049046;28;21022;-81
2023/04/20 08:26:58;;;;;;;6.63;5.70;;;8.80;1.00;;;;;;5042473;28;20453;-83
2023/04/20 08:29:25;;;;;;;9.33;6.37;;;8.80;99.90;;;;;;5039802;28;20558;-79
2023/04/20 08:31:52;;;;;;;8.30;5.67;;;9.10;1.00;;;;;;5037247;28;20458;-81
2023/04/20 08:34:20;;;;;;;10.60;7.60;;;9.20;99.90;;;;;;5043202;28;20979;-82
2023/04/20 08:36:47;;;;;;;9.20;7.20;;;8.90;76.70;;;;;;5038745;28;20967;-81
2023/04/20 08:39:20;;;;;;;8.00;6.80;;;8.60;99.90;;;;;;5036217;28;20513;-83
2023/04/20 08:41:49;;;;;;;10.43;6.63;;;8.90;1.00;;;;;;5021937;28;20463;-83
2023/04/20 08:44:15;;;;;;;10.00;7.53;;;8.80;99.90;;;;;;5027457;28;20548;-80
2023/04/20 08:46:47;;;;;;;7.93;6.73;;;8.80;1.00;;;;;;5023969;28;20480;-79
2023/04/20 08:49:15;;;;;;;10.40;7.17;;;8.70;99.90;;;;;;5047670;28;20917;-83
2023/04/20 08:51:45;;;;;;;34.03;9.47;;;8.40;99.90;;;;;;5046031;28;20440;-84
2023/04/20 08:54:12;;;;;;;11.40;8.20;;;8.30;1.00;;;;;;5044955;28;20471;-80
2023/04/20 08:56:40;;;;;;;11.23;8.10;;;8.20;1.00;;;;;;5051974;28;20573;-83
2023/04/20 08:59:09;;;;;;;11.73;8.30;;;8.20;1.00;;;;;;5033934;28;20481;-81
2023/04/20 09:01:36;;;;;;;11.00;8.83;;;8.40;1.00;;;;;;5055747;28;20918;-82
2023/04/20 09:04:14;;;;;;;9.57;7.17;;;9.10;1.00;;;;;;5048791;28;20487;-83
2023/04/20 09:06:45;;;;;;;11.83;9.00;;;10.30;1.00;;;;;;5035960;28;20456;-82
2023/04/20 09:09:11;;;;;;;8.80;7.80;;;10.60;99.90;;;;;;5037281;28;20485;-82
2023/04/20 09:11:39;;;;;;;7.80;6.70;;;10.80;99.90;;;;;;5034606;28;20945;-81
2023/04/20 09:14:08;;;;;;;10.10;7.37;;;10.70;99.90;;;;;;5042653;28;20826;-83
2023/04/20 09:16:38;;;;;;;8.20;7.37;;;10.50;99.90;;;;;;5056289;28;20512;-83
2023/04/20 09:19:05;;;;;;;10.50;8.80;;;11.00;99.90;;;;;;5050006;28;20487;-82
2023/04/20 09:21:32;;;;;;;9.73;8.73;;;11.40;99.90;;;;;;5034999;28;21016;-82
2023/04/20 09:24:01;;;;;;;9.10;7.60;;;11.70;99.90;;;;;;5036990;28;20861;-83
2023/04/20 09:26:33;;;;;;;11.67;9.17;;;11.70;99.90;;;;;;5035866;28;20827;-82
2023/04/20 09:28:59;;;;;;;9.07;7.60;;;11.60;99.90;;;;;;5036308;28;20483;-82
2023/04/20 09:31:26;;;;;;;8.90;8.00;;;11.10;1.00;;;;;;5034806;28;20459;-82
2023/04/20 09:33:58;;;;;;;10.50;8.17;;;11.00;1.00;;;;;;5037072;28;20506;-83
2023/04/20 09:36:34;;;;;;;8.40;7.43;;;11.10;1.00;;;;;;5038860;28;20454;-82
2023/04/20 09:39:05;;;;;;;14.30;9.73;;;10.90;99.90;;;;;;5040413;28;20492;-81
2023/04/20 09:41:34;;;;;;;11.43;8.80;;;10.60;99.90;;;;;;5056709;28;20455;-81
2023/04/20 09:44:02;;;;;;;13.60;8.17;;;10.60;1.00;;;;;;5041050;28;20480;-81
2023/04/20 09:46:31;;;;;;;10.00;7.43;;;10.70;99.90;;;;;;5041617;28;20464;-85
2023/04/20 09:48:59;;;;;;;11.20;8.47;;;10.70;1.00;;;;;;5038243;28;20579;-83
2023/04/20 09:51:27;;;;;;;8.07;7.27;;;10.60;99.90;;;;;;5037841;28;20471;-83
2023/04/20 09:53:55;;;;;;;8.67;6.77;;;10.50;1.00;;;;;;5056936;28;20448;-83
2023/04/20 09:56:24;;;;;;;9.60;5.90;;;10.50;1.00;;;;;;5057885;28;20469;-83
2023/04/20 09:58:51;;;;;;;9.13;6.87;;;10.30;99.90;;;;;;5057926;28;20846;-83
2023/04/20 10:01:19;;;;;;;8.87;6.47;;;10.30;99.90;;;;;;5057611;28;20454;-82
2023/04/20 10:03:46;;;;;;;7.80;6.33;;;10.00;99.90;;;;;;5038623;28;20482;-81
2023/04/20 10:06:23;;;;;;;7.13;6.43;;;9.80;1.00;;;;;;5037475;28;20468;-82
2023/04/20 10:08:50;;;;;;;8.00;5.90;;;9.70;99.90;;;;;;5038002;28;20842;-82
2023/04/20 10:11:32;;;;;;;7.17;6.43;;;9.40;99.90;;;;;;5038339;28;20467;-82
2023/04/20 10:14:02;;;;;;;5.53;4.90;;;9.40;99.90;;;;;;5037089;28;20431;-82
2023/04/20 10:16:29;;;;;;;6.03;5.43;;;10.90;1.00;;;;;;5044719;28;20455;-81
2023/04/20 10:19:01;;;;;;;4.40;4.00;;;12.30;1.00;;;;;;5057113;28;20472;-82
2023/04/20 10:21:29;;;;;;;4.37;3.40;;;14.10;99.90;;;;;;5049326;28;20828;-83
2023/04/20 10:23:57;;;;;;;5.93;5.33;;;16.30;48.20;;;;;;5035814;28;20483;-81
2023/04/20 10:26:36;;;;;;;4.23;3.43;;;18.00;1.00;;;;;;5039651;28;20508;-83
2023/04/20 10:29:06;;;;;;;4.80;3.77;;;19.50;99.90;;;;;;5020066;28;20560;-83
2023/04/20 10:31:37;;;;;;;5.63;4.40;;;19.80;99.90;;;;;;5032331;28;20445;-82
2023/04/20 10:34:04;;;;;;;5.80;4.20;;;17.90;99.90;;;;;;5034958;28;20974;-84
2023/04/20 10:36:35;;;;;;;4.10;3.60;;;17.40;99.90;;;;;;5032382;28;20531;-81
2023/04/20 10:39:13;;;;;;;5.57;3.70;;;17.40;99.90;;;;;;5071014;22;20467;-79
2023/04/20 10:41:54;;;;;;;4.90;4.40;;;16.50;99.90;;;;;;5024634;28;20536;-78
2023/04/20 10:44:22;;;;;;;4.80;4.30;;;15.50;99.90;;;;;;5048076;28;20554;-78
2023/04/20 10:46:50;;;;;;;5.27;3.90;;;14.30;99.90;;;;;;5042172;28;20474;-79
2023/04/20 10:49:17;;;;;;;6.23;5.33;;;13.40;99.90;;;;;;5056845;28;20468;-78
2023/04/20 10:51:48;;;;;;;6.10;4.63;;;12.50;1.00;;;;;;5055880;28;20458;-79
2023/04/20 10:54:15;;;;;;;4.63;3.60;;;12.60;1.00;;;;;;5044831;28;20459;-77
2023/04/20 10:56:43;;;;;;;6.30;4.67;;;13.60;99.90;;;;;;5038765;28;20939;-78
2023/04/20 10:59:11;;;;;;;6.37;4.23;;;15.30;1.00;;;;;;5057423;28;20494;-77
2023/04/20 11:01:40;;;;;;;4.20;3.80;;;15.10;99.90;;;;;;5051734;28;20457;-79
2023/04/20 11:04:08;;;;;;;5.20;4.50;;;14.80;99.90;;;;;;5031005;28;20512;-78
2023/04/20 11:06:35;;;;;;;6.17;5.27;;;14.40;99.90;;;;;;5026333;28;20547;-78
2023/04/20 11:09:03;;;;;;;5.10;4.57;;;14.10;99.90;;;;;;5019678;28;20877;-79
2023/04/20 11:11:29;;;;;;;4.40;3.93;;;13.80;1.00;;;;;;5056149;28;20458;-78
2023/04/20 11:14:07;;;;;;;5.33;3.50;;;13.80;99.90;;;;;;5048058;28;20467;-79
2023/04/20 11:16:37;;;;;;;3.57;3.20;;;14.20;99.90;;;;;;5018395;28;20465;-79
2023/04/20 11:19:06;;;;;;;4.10;3.20;;;14.50;99.90;;;;;;5020757;28;20873;-78
2023/04/20 11:21:37;;;;;;;3.67;3.30;;;14.90;99.90;;;;;;5048206;28;20450;-79
2023/04/20 11:24:19;;;;;;;3.80;3.43;;;17.50;99.90;;;;;;5032586;28;20737;-78
2023/04/20 11:26:48;;;;;;;5.53;3.17;;;20.50;99.90;;;;;;5036133;28;20497;-79
2023/04/20 11:29:29;;;;;;;3.20;2.83;;;22.70;99.90;;;;;;5037129;28;20980;-78
2023/04/20 11:31:57;;;;;;;3.47;3.03;;;23.00;99.90;;;;;;5035344;28;20466;-78
2023/04/20 11:34:25;;;;;;;4.40;3.07;;;22.50;99.90;;;;;;5035742;28;20476;-81
2023/04/20 11:36:54;;;;;;;2.90;2.40;;;19.70;99.90;;;;;;5038848;28;20538;-79
2023/04/20 11:39:25;;;;;;;3.07;2.77;;;18.70;99.90;;;;;;5035431;28;20556;-78
2023/04/20 11:41:52;;;;;;;4.37;3.17;;;17.50;99.90;;;;;;5034467;28;20441;-78
2023/04/20 11:44:20;;;;;;;3.50;3.20;;;16.70;99.90;;;;;;5035277;28;21065;-78
2023/04/20 11:46:53;;;;;;;4.10;3.30;;;15.50;99.90;;;;;;5035427;28;20547;-78
2023/04/20 11:49:20;;;;;;;4.50;2.93;;;15.10;99.90;;;;;;5034380;28;20554;-79
2023/04/20 11:51:48;;;;;;;6.10;3.43;;;16.40;99.90;;;;;;5036119;28;20451;-80
2023/04/20 11:54:15;;;;;;;4.30;3.23;;;16.40;99.90;;;;;;5034006;28;20551;-80
2023/04/20 11:56:43;;;;;;;4.37;3.43;;;17.90;99.90;;;;;;5035955;28;20519;-79
2023/04/20 11:59:11;;;;;;;3.53;3.23;;;18.20;99.90;;;;;;5036391;28;20551;-81
2023/04/20 12:01:38;;;;;;;4.90;4.20;;;17.70;99.90;;;;;;5036737;28;20999;-79
2023/04/20 12:04:08;;;;;;;6.10;4.27;;;16.60;99.90;;;;;;5039838;28;20512;-79
2023/04/20 12:06:39;;;;;;;5.17;4.33;;;16.10;99.90;;;;;;5039431;28;20450;-78
2023/04/20 12:09:07;;;;;;;5.60;3.90;;;16.10;99.90;;;;;;5035132;28;20471;-79
2023/04/20 12:11:36;;;;;;;5.67;4.13;;;17.10;99.90;;;;;;5037676;28;20480;-78
2023/04/20 12:14:07;;;;;;;4.47;3.87;;;18.50;99.90;;;;;;5037592;28;20455;-81
2023/04/20 12:16:34;;;;;;;4.50;3.87;;;17.80;99.90;;;;;;5038735;28;20453;-81
2023/04/20 12:19:08;;;;;;;6.07;4.10;;;17.70;99.90;;;;;;5035603;28;21026;-79
2023/04/20 12:21:35;;;;;;;5.07;4.57;;;19.20;99.90;;;;;;5038858;28;20452;-79
2023/04/20 12:24:02;;;;;;;5.17;4.50;;;19.50;99.90;;;;;;5036562;28;20957;-79
2023/04/20 12:26:42;;;;;;;5.20;3.93;;;19.20;99.90;;;;;;5038569;28;20452;-81
2023/04/20 12:29:10;;;;;;;5.47;4.13;;;18.30;99.90;;;;;;5038630;28;20470;-80
2023/04/20 12:31:36;;;;;;;5.03;3.57;;;20.30;99.90;;;;;;5037776;28;20464;-79
2023/04/20 12:34:03;;;;;;;4.50;3.80;;;22.10;99.90;;;;;;5037823;28;20520;-79
2023/04/20 12:36:31;;;;;;;8.13;4.70;;;20.40;99.90;;;;;;5038470;28;20450;-80
2023/04/20 12:38:58;;;;;;;5.13;4.20;;;18.30;99.90;;;;;;5036875;28;20480;-79
2023/04/20 12:41:25;;;;;;;4.77;4.27;;;17.80;99.90;;;;;;5035201;28;20453;-79
2023/04/20 12:43:53;;;;;;;4.07;3.57;;;17.20;99.90;;;;;;5033484;28;20453;-79
2023/04/20 12:46:20;;;;;;;5.23;4.20;;;18.10;99.90;;;;;;5036550;28;20449;-79
2023/04/20 12:48:47;;;;;;;5.53;3.83;;;19.00;99.90;;;;;;5037625;28;20464;-79
2023/04/20 12:51:14;;;;;;;4.80;3.93;;;18.40;99.90;;;;;;5034742;28;20901;-79
2023/04/20 12:53:41;;;;;;;3.70;3.30;;;18.00;99.90;;;;;;5034551;28;20526;-79
2023/04/20 12:56:08;;;;;;;4.67;4.23;;;18.60;99.90;;;;;;5038106;28;21050;-78
2023/04/20 12:58:35;;;;;;;4.90;4.20;;;19.10;99.90;;;;;;5034667;28;20551;-78